sensor_id;sensor_type;location;lat;lon;timestamp;P1;durP1;ratioP1;P2;durP2;ratioP2
66593;SDS011;53450;42.584;23.366;2022-09-02T00:01:26;34.08;;;18.40;;
66593;SDS011;53450;42.584;23.366;2022-09-02T00:03:55;26.30;;;18.63;;
66593;SDS011;53450;42.584;23.366;2022-09-02T00:06:23;24.15;;;18.45;;
66593;SDS011;53450;42.584;23.366;2022-09-02T00:08:49;27.63;;;18.23;;
66593;SDS011;53450;42.584;23.366;2022-09-02T00:11:42;25.60;;;18.48;;
66593;SDS011;53450;42.584;23.366;2022-09-02T00:14:11;24.52;;;17.65;;
66593;SDS011;53450;42.584;23.366;2022-09-02T00:16:39;26.48;;;18.20;;
66593;SDS011;53450;42.584;23.366;2022-09-02T00:19:08;27.70;;;17.88;;
66593;SDS011;53450;42.584;23.366;2022-09-02T00:21:35;27.70;;;18.98;;
66593;SDS011;53450;42.584;23.366;2022-09-02T00:24:02;26.98;;;18.45;;
66593;SDS011;53450;42.584;23.366;2022-09-02T00:26:29;24.92;;;16.50;;
66593;SDS011;53450;42.584;23.366;2022-09-02T00:28:55;29.35;;;16.90;;
66593;SDS011;53450;42.584;23.366;2022-09-02T00:31:24;25.38;;;17.48;;
66593;SDS011;53450;42.584;23.366;2022-09-02T00:33:49;26.63;;;17.80;;
66593;SDS011;53450;42.584;23.366;2022-09-02T00:36:16;27.08;;;16.98;;
66593;SDS011;53450;42.584;23.366;2022-09-02T00:38:42;22.67;;;17.25;;
66593;SDS011;53450;42.584;23.366;2022-09-02T00:41:09;26.42;;;17.15;;
66593;SDS011;53450;42.584;23.366;2022-09-02T00:46:12;23.23;;;16.25;;
66593;SDS011;53450;42.584;23.366;2022-09-02T00:51:37;24.75;;;15.90;;
66593;SDS011;53450;42.584;23.366;2022-09-02T00:54:33;22.98;;;15.80;;
66593;SDS011;53450;42.584;23.366;2022-09-02T00:57:06;21.75;;;15.98;;
66593;SDS011;53450;42.584;23.366;2022-09-02T01:02:01;22.63;;;15.88;;
66593;SDS011;53450;42.584;23.366;2022-09-02T01:04:27;20.60;;;15.75;;
66593;SDS011;53450;42.584;23.366;2022-09-02T01:06:56;20.67;;;15.55;;
66593;SDS011;53450;42.584;23.366;2022-09-02T01:09:22;20.23;;;15.90;;
66593;SDS011;53450;42.584;23.366;2022-09-02T01:11:48;19.95;;;15.85;;
66593;SDS011;53450;42.584;23.366;2022-09-02T01:14:16;20.50;;;16.35;;
66593;SDS011;53450;42.584;23.366;2022-09-02T01:16:45;22.27;;;15.88;;
66593;SDS011;53450;42.584;23.366;2022-09-02T01:19:17;20.75;;;14.57;;
66593;SDS011;53450;42.584;23.366;2022-09-02T01:21:48;21.52;;;16.67;;
66593;SDS011;53450;42.584;23.366;2022-09-02T01:24:15;24.40;;;16.50;;
66593;SDS011;53450;42.584;23.366;2022-09-02T01:26:42;27.52;;;17.05;;
66593;SDS011;53450;42.584;23.366;2022-09-02T01:29:08;30.98;;;18.65;;
66593;SDS011;53450;42.584;23.366;2022-09-02T01:31:34;23.30;;;17.60;;
66593;SDS011;53450;42.584;23.366;2022-09-02T01:34:01;24.77;;;17.30;;
66593;SDS011;53450;42.584;23.366;2022-09-02T01:36:28;24.30;;;16.58;;
66593;SDS011;53450;42.584;23.366;2022-09-02T01:38:54;24.50;;;18.15;;
66593;SDS011;53450;42.584;23.366;2022-09-02T01:41:20;21.92;;;18.13;;
66593;SDS011;53450;42.584;23.366;2022-09-02T01:43:46;32.13;;;19.33;;
66593;SDS011;53450;42.584;23.366;2022-09-02T01:46:12;23.13;;;18.42;;
66593;SDS011;53450;42.584;23.366;2022-09-02T01:48:40;28.58;;;19.95;;
66593;SDS011;53450;42.584;23.366;2022-09-02T01:51:06;29.33;;;19.80;;
66593;SDS011;53450;42.584;23.366;2022-09-02T01:53:33;27.42;;;20.13;;
66593;SDS011;53450;42.584;23.366;2022-09-02T01:55:59;31.38;;;19.38;;
66593;SDS011;53450;42.584;23.366;2022-09-02T01:58:28;27.23;;;20.08;;
66593;SDS011;53450;42.584;23.366;2022-09-02T02:00:54;28.63;;;19.33;;
66593;SDS011;53450;42.584;23.366;2022-09-02T02:03:21;27.60;;;20.58;;
66593;SDS011;53450;42.584;23.366;2022-09-02T02:05:49;29.90;;;18.75;;
66593;SDS011;53450;42.584;23.366;2022-09-02T02:08:17;29.05;;;19.35;;
66593;SDS011;53450;42.584;23.366;2022-09-02T02:10:44;28.77;;;19.52;;
66593;SDS011;53450;42.584;23.366;2022-09-02T02:13:11;29.17;;;19.65;;
66593;SDS011;53450;42.584;23.366;2022-09-02T02:15:40;27.45;;;21.10;;
66593;SDS011;53450;42.584;23.366;2022-09-02T02:18:07;29.33;;;20.55;;
66593;SDS011;53450;42.584;23.366;2022-09-02T02:20:34;32.95;;;20.70;;
66593;SDS011;53450;42.584;23.366;2022-09-02T02:23:03;35.47;;;20.85;;
66593;SDS011;53450;42.584;23.366;2022-09-02T02:25:30;30.50;;;20.83;;
66593;SDS011;53450;42.584;23.366;2022-09-02T02:27:56;27.75;;;20.92;;
66593;SDS011;53450;42.584;23.366;2022-09-02T02:30:22;26.45;;;19.88;;
66593;SDS011;53450;42.584;23.366;2022-09-02T02:32:49;27.65;;;18.33;;
66593;SDS011;53450;42.584;23.366;2022-09-02T02:35:17;32.58;;;17.92;;
66593;SDS011;53450;42.584;23.366;2022-09-02T02:37:45;26.13;;;19.10;;
66593;SDS011;53450;42.584;23.366;2022-09-02T02:40:16;33.78;;;19.58;;
66593;SDS011;53450;42.584;23.366;2022-09-02T02:42:45;25.58;;;18.38;;
66593;SDS011;53450;42.584;23.366;2022-09-02T02:45:13;36.13;;;19.38;;
66593;SDS011;53450;42.584;23.366;2022-09-02T02:47:39;30.65;;;19.45;;
66593;SDS011;53450;42.584;23.366;2022-09-02T02:50:14;24.95;;;18.13;;
66593;SDS011;53450;42.584;23.366;2022-09-02T02:52:43;23.20;;;17.73;;
66593;SDS011;53450;42.584;23.366;2022-09-02T02:55:10;23.75;;;17.48;;
66593;SDS011;53450;42.584;23.366;2022-09-02T02:57:37;25.70;;;17.33;;
66593;SDS011;53450;42.584;23.366;2022-09-02T03:00:30;23.63;;;17.48;;
66593;SDS011;53450;42.584;23.366;2022-09-02T03:03:00;28.40;;;17.98;;
66593;SDS011;53450;42.584;23.366;2022-09-02T03:05:31;25.73;;;17.85;;
66593;SDS011;53450;42.584;23.366;2022-09-02T03:08:00;33.28;;;18.60;;
66593;SDS011;53450;42.584;23.366;2022-09-02T03:13:00;31.73;;;18.58;;
66593;SDS011;53450;42.584;23.366;2022-09-02T03:15:27;23.52;;;18.10;;
66593;SDS011;53450;42.584;23.366;2022-09-02T03:17:55;33.42;;;20.00;;
66593;SDS011;53450;42.584;23.366;2022-09-02T03:20:22;27.50;;;18.05;;
66593;SDS011;53450;42.584;23.366;2022-09-02T03:22:53;24.67;;;17.75;;
66593;SDS011;53450;42.584;23.366;2022-09-02T03:25:21;35.50;;;19.02;;
66593;SDS011;53450;42.584;23.366;2022-09-02T03:27:53;25.10;;;18.17;;
66593;SDS011;53450;42.584;23.366;2022-09-02T03:30:20;33.88;;;18.30;;
66593;SDS011;53450;42.584;23.366;2022-09-02T03:32:53;25.70;;;16.47;;
66593;SDS011;53450;42.584;23.366;2022-09-02T03:35:21;33.63;;;15.85;;
66593;SDS011;53450;42.584;23.366;2022-09-02T03:37:47;19.48;;;14.52;;
66593;SDS011;53450;42.584;23.366;2022-09-02T03:40:17;19.77;;;15.25;;
66593;SDS011;53450;42.584;23.366;2022-09-02T03:42:50;20.27;;;16.77;;
66593;SDS011;53450;42.584;23.366;2022-09-02T03:45:20;24.63;;;15.48;;
66593;SDS011;53450;42.584;23.366;2022-09-02T03:47:47;24.85;;;15.90;;
66593;SDS011;53450;42.584;23.366;2022-09-02T03:50:22;26.23;;;15.98;;
66593;SDS011;53450;42.584;23.366;2022-09-02T03:53:15;23.63;;;15.02;;
66593;SDS011;53450;42.584;23.366;2022-09-02T03:55:41;19.73;;;14.45;;
66593;SDS011;53450;42.584;23.366;2022-09-02T03:58:07;18.83;;;14.45;;
66593;SDS011;53450;42.584;23.366;2022-09-02T04:00:34;18.75;;;15.30;;
66593;SDS011;53450;42.584;23.366;2022-09-02T04:03:02;23.80;;;14.90;;
66593;SDS011;53450;42.584;23.366;2022-09-02T04:05:30;21.40;;;16.13;;
66593;SDS011;53450;42.584;23.366;2022-09-02T04:07:58;22.52;;;16.63;;
66593;SDS011;53450;42.584;23.366;2022-09-02T04:10:25;17.17;;;14.45;;
66593;SDS011;53450;42.584;23.366;2022-09-02T04:12:53;17.08;;;14.32;;
66593;SDS011;53450;42.584;23.366;2022-09-02T04:15:19;23.38;;;15.73;;
66593;SDS011;53450;42.584;23.366;2022-09-02T04:17:48;20.85;;;13.10;;
66593;SDS011;53450;42.584;23.366;2022-09-02T04:20:17;15.25;;;12.05;;
66593;SDS011;53450;42.584;23.366;2022-09-02T04:22:43;15.77;;;11.80;;
66593;SDS011;53450;42.584;23.366;2022-09-02T04:25:09;21.75;;;13.00;;
66593;SDS011;53450;42.584;23.366;2022-09-02T04:27:35;17.25;;;13.55;;
66593;SDS011;53450;42.584;23.366;2022-09-02T04:30:02;16.80;;;13.48;;
66593;SDS011;53450;42.584;23.366;2022-09-02T04:32:31;19.52;;;12.82;;
66593;SDS011;53450;42.584;23.366;2022-09-02T04:35:00;18.40;;;13.77;;
66593;SDS011;53450;42.584;23.366;2022-09-02T04:37:27;15.50;;;13.02;;
66593;SDS011;53450;42.584;23.366;2022-09-02T04:39:53;22.85;;;13.95;;
66593;SDS011;53450;42.584;23.366;2022-09-02T04:42:21;17.25;;;14.32;;
66593;SDS011;53450;42.584;23.366;2022-09-02T04:44:47;19.33;;;13.45;;
66593;SDS011;53450;42.584;23.366;2022-09-02T04:47:14;20.92;;;16.30;;
66593;SDS011;53450;42.584;23.366;2022-09-02T04:49:41;137.32;;;63.88;;
66593;SDS011;53450;42.584;23.366;2022-09-02T04:52:11;181.85;;;72.38;;
66593;SDS011;53450;42.584;23.366;2022-09-02T04:54:37;105.95;;;49.45;;
66593;SDS011;53450;42.584;23.366;2022-09-02T04:57:05;57.30;;;29.30;;
66593;SDS011;53450;42.584;23.366;2022-09-02T04:59:31;36.45;;;23.35;;
66593;SDS011;53450;42.584;23.366;2022-09-02T05:02:08;32.20;;;20.50;;
66593;SDS011;53450;42.584;23.366;2022-09-02T05:07:35;21.35;;;15.35;;
66593;SDS011;53450;42.584;23.366;2022-09-02T05:10:04;23.17;;;14.48;;
66593;SDS011;53450;42.584;23.366;2022-09-02T05:12:35;20.38;;;13.48;;
66593;SDS011;53450;42.584;23.366;2022-09-02T05:15:04;18.25;;;13.20;;
66593;SDS011;53450;42.584;23.366;2022-09-02T05:17:32;18.85;;;12.75;;
66593;SDS011;53450;42.584;23.366;2022-09-02T05:20:00;17.98;;;12.30;;
66593;SDS011;53450;42.584;23.366;2022-09-02T05:22:28;15.60;;;12.30;;
66593;SDS011;53450;42.584;23.366;2022-09-02T05:24:56;15.85;;;12.48;;
66593;SDS011;53450;42.584;23.366;2022-09-02T05:27:22;17.98;;;12.05;;
66593;SDS011;53450;42.584;23.366;2022-09-02T05:29:53;14.75;;;10.27;;
66593;SDS011;53450;42.584;23.366;2022-09-02T05:32:20;24.58;;;9.77;;
66593;SDS011;53450;42.584;23.366;2022-09-02T05:34:49;11.48;;;10.27;;
66593;SDS011;53450;42.584;23.366;2022-09-02T05:37:39;17.15;;;8.73;;
66593;SDS011;53450;42.584;23.366;2022-09-02T05:40:30;10.45;;;8.95;;
66593;SDS011;53450;42.584;23.366;2022-09-02T05:43:23;13.48;;;8.80;;
66593;SDS011;53450;42.584;23.366;2022-09-02T05:46:15;11.10;;;8.52;;
66593;SDS011;53450;42.584;23.366;2022-09-02T05:48:44;11.43;;;8.68;;
66593;SDS011;53450;42.584;23.366;2022-09-02T05:51:29;10.57;;;8.40;;
66593;SDS011;53450;42.584;23.366;2022-09-02T05:53:57;11.38;;;9.02;;
66593;SDS011;53450;42.584;23.366;2022-09-02T05:56:25;9.25;;;7.72;;
66593;SDS011;53450;42.584;23.366;2022-09-02T05:58:53;9.57;;;7.93;;
66593;SDS011;53450;42.584;23.366;2022-09-02T06:01:21;11.07;;;7.97;;
66593;SDS011;53450;42.584;23.366;2022-09-02T06:03:47;8.02;;;6.95;;
66593;SDS011;53450;42.584;23.366;2022-09-02T06:06:13;12.18;;;7.05;;
66593;SDS011;53450;42.584;23.366;2022-09-02T06:08:40;9.82;;;7.57;;
66593;SDS011;53450;42.584;23.366;2022-09-02T06:11:08;9.45;;;7.30;;
66593;SDS011;53450;42.584;23.366;2022-09-02T06:13:37;12.07;;;8.10;;
66593;SDS011;53450;42.584;23.366;2022-09-02T06:16:05;9.18;;;7.78;;
66593;SDS011;53450;42.584;23.366;2022-09-02T06:18:38;10.73;;;7.85;;
66593;SDS011;53450;42.584;23.366;2022-09-02T06:21:04;9.20;;;7.63;;
66593;SDS011;53450;42.584;23.366;2022-09-02T06:23:36;12.05;;;8.18;;
66593;SDS011;53450;42.584;23.366;2022-09-02T06:26:04;12.65;;;8.32;;
66593;SDS011;53450;42.584;23.366;2022-09-02T06:28:31;12.07;;;7.35;;
66593;SDS011;53450;42.584;23.366;2022-09-02T06:30:58;10.05;;;7.45;;
66593;SDS011;53450;42.584;23.366;2022-09-02T06:33:24;8.30;;;6.68;;
66593;SDS011;53450;42.584;23.366;2022-09-02T06:35:56;14.02;;;6.97;;
66593;SDS011;53450;42.584;23.366;2022-09-02T06:38:30;8.90;;;7.00;;
66593;SDS011;53450;42.584;23.366;2022-09-02T06:41:02;9.90;;;7.75;;
66593;SDS011;53450;42.584;23.366;2022-09-02T06:43:51;9.95;;;7.30;;
66593;SDS011;53450;42.584;23.366;2022-09-02T06:46:21;11.90;;;9.43;;
66593;SDS011;53450;42.584;23.366;2022-09-02T06:51:29;11.43;;;8.02;;
66593;SDS011;53450;42.584;23.366;2022-09-02T06:53:59;8.88;;;7.97;;
66593;SDS011;53450;42.584;23.366;2022-09-02T06:56:29;12.87;;;9.07;;
66593;SDS011;53450;42.584;23.366;2022-09-02T06:58:55;15.80;;;8.00;;
66593;SDS011;53450;42.584;23.366;2022-09-02T07:01:34;9.15;;;7.78;;
66593;SDS011;53450;42.584;23.366;2022-09-02T07:04:03;10.30;;;7.65;;
66593;SDS011;53450;42.584;23.366;2022-09-02T07:06:51;7.95;;;6.95;;
66593;SDS011;53450;42.584;23.366;2022-09-02T07:09:20;8.25;;;7.38;;
66593;SDS011;53450;42.584;23.366;2022-09-02T07:11:49;9.95;;;7.18;;
66593;SDS011;53450;42.584;23.366;2022-09-02T07:14:17;8.63;;;7.43;;
66593;SDS011;53450;42.584;23.366;2022-09-02T07:16:51;10.35;;;7.25;;
66593;SDS011;53450;42.584;23.366;2022-09-02T07:19:18;9.52;;;8.27;;
66593;SDS011;53450;42.584;23.366;2022-09-02T07:21:45;9.32;;;8.05;;
66593;SDS011;53450;42.584;23.366;2022-09-02T07:24:12;10.00;;;8.15;;
66593;SDS011;53450;42.584;23.366;2022-09-02T07:26:42;12.75;;;9.18;;
66593;SDS011;53450;42.584;23.366;2022-09-02T07:29:09;10.40;;;7.50;;
66593;SDS011;53450;42.584;23.366;2022-09-02T07:31:36;9.20;;;7.70;;
66593;SDS011;53450;42.584;23.366;2022-09-02T07:37:32;12.35;;;8.52;;
66593;SDS011;53450;42.584;23.366;2022-09-02T07:40:03;8.45;;;7.55;;
66593;SDS011;53450;42.584;23.366;2022-09-02T07:42:36;9.85;;;7.93;;
66593;SDS011;53450;42.584;23.366;2022-09-02T07:45:03;10.20;;;8.18;;
66593;SDS011;53450;42.584;23.366;2022-09-02T07:47:37;9.63;;;8.25;;
66593;SDS011;53450;42.584;23.366;2022-09-02T07:50:05;9.57;;;7.70;;
66593;SDS011;53450;42.584;23.366;2022-09-02T07:56:17;8.65;;;7.72;;
66593;SDS011;53450;42.584;23.366;2022-09-02T07:58:46;10.75;;;7.63;;
66593;SDS011;53450;42.584;23.366;2022-09-02T08:04:10;7.45;;;6.70;;
66593;SDS011;53450;42.584;23.366;2022-09-02T08:06:40;16.50;;;7.13;;
66593;SDS011;53450;42.584;23.366;2022-09-02T08:09:07;9.20;;;8.02;;
66593;SDS011;53450;42.584;23.366;2022-09-02T08:11:41;9.57;;;7.18;;
66593;SDS011;53450;42.584;23.366;2022-09-02T08:14:33;10.82;;;7.43;;
66593;SDS011;53450;42.584;23.366;2022-09-02T08:17:24;12.70;;;9.00;;
66593;SDS011;53450;42.584;23.366;2022-09-02T08:19:51;9.75;;;8.65;;
66593;SDS011;53450;42.584;23.366;2022-09-02T08:22:20;16.45;;;9.20;;
66593;SDS011;53450;42.584;23.366;2022-09-02T08:24:46;12.43;;;9.80;;
66593;SDS011;53450;42.584;23.366;2022-09-02T08:27:12;13.63;;;9.25;;
66593;SDS011;53450;42.584;23.366;2022-09-02T08:29:40;9.05;;;7.05;;
66593;SDS011;53450;42.584;23.366;2022-09-02T08:32:07;18.40;;;7.07;;
66593;SDS011;53450;42.584;23.366;2022-09-02T08:34:32;21.63;;;14.65;;
66593;SDS011;53450;42.584;23.366;2022-09-02T08:36:59;13.93;;;8.93;;
66593;SDS011;53450;42.584;23.366;2022-09-02T08:39:24;11.75;;;7.45;;
66593;SDS011;53450;42.584;23.366;2022-09-02T08:42:22;12.18;;;7.85;;
66593;SDS011;53450;42.584;23.366;2022-09-02T08:44:49;9.27;;;8.07;;
66593;SDS011;53450;42.584;23.366;2022-09-02T08:47:42;12.85;;;7.88;;
66593;SDS011;53450;42.584;23.366;2022-09-02T08:50:16;10.65;;;8.25;;
66593;SDS011;53450;42.584;23.366;2022-09-02T08:55:17;36.17;;;8.48;;
66593;SDS011;53450;42.584;23.366;2022-09-02T08:57:48;9.15;;;7.43;;
66593;SDS011;53450;42.584;23.366;2022-09-02T09:00:14;9.82;;;7.15;;
66593;SDS011;53450;42.584;23.366;2022-09-02T09:05:43;13.15;;;6.75;;
66593;SDS011;53450;42.584;23.366;2022-09-02T09:08:42;14.07;;;7.50;;
66593;SDS011;53450;42.584;23.366;2022-09-02T09:14:16;10.68;;;7.38;;
66593;SDS011;53450;42.584;23.366;2022-09-02T09:16:48;17.08;;;8.32;;
66593;SDS011;53450;42.584;23.366;2022-09-02T09:22:32;10.23;;;8.18;;
66593;SDS011;53450;42.584;23.366;2022-09-02T09:25:10;9.68;;;8.43;;
66593;SDS011;53450;42.584;23.366;2022-09-02T09:27:39;10.35;;;8.70;;
66593;SDS011;53450;42.584;23.366;2022-09-02T09:30:05;10.02;;;8.50;;
66593;SDS011;53450;42.584;23.366;2022-09-02T09:32:46;12.25;;;8.70;;
66593;SDS011;53450;42.584;23.366;2022-09-02T09:35:18;18.80;;;9.02;;
66593;SDS011;53450;42.584;23.366;2022-09-02T09:37:50;10.32;;;9.25;;
66593;SDS011;53450;42.584;23.366;2022-09-02T09:45:46;9.93;;;8.95;;
66593;SDS011;53450;42.584;23.366;2022-09-02T09:50:48;11.48;;;9.32;;
66593;SDS011;53450;42.584;23.366;2022-09-02T09:53:36;19.58;;;9.60;;
66593;SDS011;53450;42.584;23.366;2022-09-02T09:56:06;18.80;;;10.68;;
66593;SDS011;53450;42.584;23.366;2022-09-02T09:58:49;10.63;;;8.75;;
66593;SDS011;53450;42.584;23.366;2022-09-02T10:01:41;13.45;;;9.80;;
66593;SDS011;53450;42.584;23.366;2022-09-02T10:04:33;12.90;;;9.73;;
66593;SDS011;53450;42.584;23.366;2022-09-02T10:06:59;16.35;;;10.63;;
66593;SDS011;53450;42.584;23.366;2022-09-02T10:12:00;21.00;;;11.15;;
66593;SDS011;53450;42.584;23.366;2022-09-02T10:22:47;21.20;;;14.18;;
66593;SDS011;53450;42.584;23.366;2022-09-02T10:28:47;16.38;;;12.50;;
66593;SDS011;53450;42.584;23.366;2022-09-02T10:31:28;19.40;;;12.13;;
66593;SDS011;53450;42.584;23.366;2022-09-02T10:34:09;18.90;;;13.15;;
66593;SDS011;53450;42.584;23.366;2022-09-02T10:37:10;18.90;;;12.75;;
66593;SDS011;53450;42.584;23.366;2022-09-02T10:42:42;15.07;;;11.77;;
66593;SDS011;53450;42.584;23.366;2022-09-02T10:48:24;19.70;;;12.18;;
66593;SDS011;53450;42.584;23.366;2022-09-02T10:51:21;22.08;;;12.85;;
66593;SDS011;53450;42.584;23.366;2022-09-02T10:57:10;19.38;;;13.18;;
66593;SDS011;53450;42.584;23.366;2022-09-02T11:00:32;26.98;;;13.80;;
66593;SDS011;53450;42.584;23.366;2022-09-02T11:02:52;20.37;;;13.40;;
66593;SDS011;53450;42.584;23.366;2022-09-02T11:08:09;19.95;;;14.07;;
66593;SDS011;53450;42.584;23.366;2022-09-02T11:10:39;22.75;;;15.20;;
66593;SDS011;53450;42.584;23.366;2022-09-02T11:15:42;25.77;;;15.75;;
66593;SDS011;53450;42.584;23.366;2022-09-02T11:18:17;26.40;;;15.57;;
66593;SDS011;53450;42.584;23.366;2022-09-02T11:20:57;24.58;;;16.05;;
66593;SDS011;53450;42.584;23.366;2022-09-02T11:23:57;21.10;;;15.43;;
66593;SDS011;53450;42.584;23.366;2022-09-02T11:29:39;21.90;;;15.88;;
66593;SDS011;53450;42.584;23.366;2022-09-02T11:32:34;22.23;;;14.57;;
66593;SDS011;53450;42.584;23.366;2022-09-02T11:35:05;23.25;;;14.10;;
66593;SDS011;53450;42.584;23.366;2022-09-02T11:40:24;25.85;;;14.90;;
66593;SDS011;53450;42.584;23.366;2022-09-02T11:45:33;23.10;;;15.52;;
66593;SDS011;53450;42.584;23.366;2022-09-02T11:53:39;22.50;;;14.73;;
66593;SDS011;53450;42.584;23.366;2022-09-02T11:56:17;20.90;;;14.23;;
66593;SDS011;53450;42.584;23.366;2022-09-02T11:58:47;18.38;;;14.13;;
66593;SDS011;53450;42.584;23.366;2022-09-02T12:03:45;19.83;;;15.88;;
66593;SDS011;53450;42.584;23.366;2022-09-02T12:06:18;27.58;;;16.00;;
66593;SDS011;53450;42.584;23.366;2022-09-02T12:27:50;29.20;;;16.40;;
66593;SDS011;53450;42.584;23.366;2022-09-02T12:33:34;27.05;;;16.63;;
66593;SDS011;53450;42.584;23.366;2022-09-02T12:36:02;23.55;;;16.35;;
66593;SDS011;53450;42.584;23.366;2022-09-02T12:38:33;23.48;;;17.08;;
66593;SDS011;53450;42.584;23.366;2022-09-02T12:41:06;22.63;;;16.30;;
66593;SDS011;53450;42.584;23.366;2022-09-02T12:51:53;23.45;;;17.65;;
66593;SDS011;53450;42.584;23.366;2022-09-02T12:54:29;23.10;;;16.08;;
66593;SDS011;53450;42.584;23.366;2022-09-02T12:56:56;23.10;;;15.73;;
66593;SDS011;53450;42.584;23.366;2022-09-02T12:59:35;29.85;;;17.02;;
66593;SDS011;53450;42.584;23.366;2022-09-02T13:16:09;28.50;;;17.83;;
66593;SDS011;53450;42.584;23.366;2022-09-02T13:30:13;30.67;;;18.67;;
66593;SDS011;53450;42.584;23.366;2022-09-02T13:32:40;27.10;;;18.50;;
66593;SDS011;53450;42.584;23.366;2022-09-02T13:35:07;29.38;;;18.20;;
66593;SDS011;53450;42.584;23.366;2022-09-02T13:37:42;26.48;;;15.60;;
66593;SDS011;53450;42.584;23.366;2022-09-02T13:40:19;42.33;;;18.58;;
66593;SDS011;53450;42.584;23.366;2022-09-02T13:42:46;45.42;;;18.27;;
66593;SDS011;53450;42.584;23.366;2022-09-02T13:45:18;29.05;;;14.70;;
66593;SDS011;53450;42.584;23.366;2022-09-02T13:47:48;49.40;;;17.25;;
66593;SDS011;53450;42.584;23.366;2022-09-02T13:50:17;52.58;;;16.60;;
66593;SDS011;53450;42.584;23.366;2022-09-02T13:53:09;33.53;;;15.67;;
66593;SDS011;53450;42.584;23.366;2022-09-02T13:56:21;28.17;;;15.88;;
66593;SDS011;53450;42.584;23.366;2022-09-02T13:58:52;29.80;;;17.38;;
66593;SDS011;53450;42.584;23.366;2022-09-02T14:01:32;29.42;;;14.05;;
66593;SDS011;53450;42.584;23.366;2022-09-02T14:04:04;27.23;;;14.75;;
66593;SDS011;53450;42.584;23.366;2022-09-02T14:06:34;22.83;;;16.75;;
66593;SDS011;53450;42.584;23.366;2022-09-02T14:09:06;21.95;;;13.85;;
66593;SDS011;53450;42.584;23.366;2022-09-02T14:11:42;18.27;;;12.07;;
66593;SDS011;53450;42.584;23.366;2022-09-02T14:14:17;15.65;;;12.48;;
66593;SDS011;53450;42.584;23.366;2022-09-02T14:16:46;14.70;;;12.13;;
66593;SDS011;53450;42.584;23.366;2022-09-02T14:21:46;14.43;;;9.90;;
66593;SDS011;53450;42.584;23.366;2022-09-02T14:24:14;12.07;;;10.80;;
66593;SDS011;53450;42.584;23.366;2022-09-02T14:26:44;12.23;;;9.63;;
66593;SDS011;53450;42.584;23.366;2022-09-02T14:29:15;17.10;;;11.10;;
66593;SDS011;53450;42.584;23.366;2022-09-02T14:31:43;11.52;;;9.90;;
66593;SDS011;53450;42.584;23.366;2022-09-02T14:37:18;14.38;;;9.23;;
66593;SDS011;53450;42.584;23.366;2022-09-02T14:40:00;11.10;;;8.93;;
66593;SDS011;53450;42.584;23.366;2022-09-02T14:42:41;13.65;;;10.55;;
66593;SDS011;53450;42.584;23.366;2022-09-02T14:45:27;17.92;;;11.32;;
66593;SDS011;53450;42.584;23.366;2022-09-02T14:51:01;22.30;;;14.02;;
66593;SDS011;53450;42.584;23.366;2022-09-02T14:53:29;19.17;;;13.40;;
66593;SDS011;53450;42.584;23.366;2022-09-02T14:55:56;20.20;;;14.52;;
66593;SDS011;53450;42.584;23.366;2022-09-02T14:58:23;21.98;;;13.13;;
66593;SDS011;53450;42.584;23.366;2022-09-02T15:00:51;21.67;;;14.63;;
66593;SDS011;53450;42.584;23.366;2022-09-02T15:03:23;18.63;;;14.25;;
66593;SDS011;53450;42.584;23.366;2022-09-02T15:05:49;19.33;;;14.27;;
66593;SDS011;53450;42.584;23.366;2022-09-02T15:08:16;20.42;;;15.23;;
66593;SDS011;53450;42.584;23.366;2022-09-02T15:10:42;20.08;;;15.95;;
66593;SDS011;53450;42.584;23.366;2022-09-02T15:13:12;21.52;;;16.02;;
66593;SDS011;53450;42.584;23.366;2022-09-02T15:15:46;22.95;;;16.42;;
66593;SDS011;53450;42.584;23.366;2022-09-02T15:18:14;24.73;;;16.05;;
66593;SDS011;53450;42.584;23.366;2022-09-02T15:20:40;22.23;;;16.75;;
66593;SDS011;53450;42.584;23.366;2022-09-02T15:23:05;22.15;;;17.00;;
66593;SDS011;53450;42.584;23.366;2022-09-02T15:25:32;24.17;;;17.35;;
66593;SDS011;53450;42.584;23.366;2022-09-02T15:27:58;25.70;;;19.33;;
66593;SDS011;53450;42.584;23.366;2022-09-02T15:30:25;24.98;;;18.70;;
66593;SDS011;53450;42.584;23.366;2022-09-02T15:32:50;25.38;;;18.40;;
66593;SDS011;53450;42.584;23.366;2022-09-02T15:35:16;29.02;;;20.70;;
66593;SDS011;53450;42.584;23.366;2022-09-02T15:37:42;29.80;;;19.77;;
66593;SDS011;53450;42.584;23.366;2022-09-02T15:40:13;31.27;;;19.27;;
66593;SDS011;53450;42.584;23.366;2022-09-02T15:42:40;25.85;;;19.17;;
66593;SDS011;53450;42.584;23.366;2022-09-02T15:45:08;25.88;;;20.08;;
66593;SDS011;53450;42.584;23.366;2022-09-02T15:47:34;31.40;;;20.90;;
66593;SDS011;53450;42.584;23.366;2022-09-02T15:50:01;33.15;;;21.08;;
66593;SDS011;53450;42.584;23.366;2022-09-02T15:52:28;30.10;;;19.90;;
66593;SDS011;53450;42.584;23.366;2022-09-02T15:55:19;30.60;;;20.35;;
66593;SDS011;53450;42.584;23.366;2022-09-02T15:58:10;33.42;;;21.70;;
66593;SDS011;53450;42.584;23.366;2022-09-02T16:00:36;28.88;;;20.83;;
66593;SDS011;53450;42.584;23.366;2022-09-02T16:03:02;32.40;;;22.23;;
66593;SDS011;53450;42.584;23.366;2022-09-02T16:05:28;30.95;;;22.70;;
66593;SDS011;53450;42.584;23.366;2022-09-02T16:07:56;32.83;;;23.58;;
66593;SDS011;53450;42.584;23.366;2022-09-02T16:10:24;38.25;;;25.13;;
66593;SDS011;53450;42.584;23.366;2022-09-02T16:13:15;39.45;;;25.15;;
66593;SDS011;53450;42.584;23.366;2022-09-02T16:15:41;41.33;;;25.83;;
66593;SDS011;53450;42.584;23.366;2022-09-02T16:18:07;44.13;;;27.23;;
66593;SDS011;53450;42.584;23.366;2022-09-02T16:20:33;38.20;;;27.73;;
66593;SDS011;53450;42.584;23.366;2022-09-02T16:22:59;40.80;;;24.02;;
66593;SDS011;53450;42.584;23.366;2022-09-02T16:25:24;39.88;;;23.08;;
66593;SDS011;53450;42.584;23.366;2022-09-02T16:27:50;27.38;;;20.13;;
66593;SDS011;53450;42.584;23.366;2022-09-02T16:30:16;29.42;;;20.42;;
66593;SDS011;53450;42.584;23.366;2022-09-02T16:32:43;31.25;;;20.45;;
66593;SDS011;53450;42.584;23.366;2022-09-02T16:35:09;27.52;;;21.05;;
66593;SDS011;53450;42.584;23.366;2022-09-02T16:37:34;31.98;;;20.42;;
66593;SDS011;53450;42.584;23.366;2022-09-02T16:40:00;42.03;;;19.83;;
66593;SDS011;53450;42.584;23.366;2022-09-02T16:42:27;98.78;;;21.88;;
66593;SDS011;53450;42.584;23.366;2022-09-02T16:44:53;255.68;;;21.77;;
66593;SDS011;53450;42.584;23.366;2022-09-02T16:47:19;28.77;;;19.10;;
66593;SDS011;53450;42.584;23.366;2022-09-02T16:49:44;46.92;;;20.10;;
66593;SDS011;53450;42.584;23.366;2022-09-02T16:52:10;44.33;;;21.42;;
66593;SDS011;53450;42.584;23.366;2022-09-02T16:54:36;30.55;;;21.83;;
66593;SDS011;53450;42.584;23.366;2022-09-02T16:57:05;30.73;;;20.70;;
66593;SDS011;53450;42.584;23.366;2022-09-02T16:59:31;31.38;;;21.85;;
66593;SDS011;53450;42.584;23.366;2022-09-02T17:02:02;41.13;;;23.75;;
66593;SDS011;53450;42.584;23.366;2022-09-02T17:04:31;34.67;;;23.23;;
66593;SDS011;53450;42.584;23.366;2022-09-02T17:06:56;30.60;;;20.95;;
66593;SDS011;53450;42.584;23.366;2022-09-02T17:09:22;28.77;;;20.83;;
66593;SDS011;53450;42.584;23.366;2022-09-02T17:12:13;27.13;;;20.88;;